Ely, Nevada Weather observations

Data are for observation ending at time listed.
 Day   Time    Ave.   Ave.  Ave.  Vector   Max.   Stn.    Total    Solar   Ave.  
  of    of     Air    Rel.  Wind   Wind    Wind   Baro.  Precip.   Rad.    Soil  
Year   Day     Temp.  Hum.  Speed  Dir.    Gust   Pres.                    Temp. 
2015   (PST)    F      %     mph   deg.    mph     mb.     in.     W/m2     F   
------------------------------------------------------------------------------
 182   18:50   76.9    31   11.3   158     20.0   811.9    0.00       7    83.8
 182   19:00   79.3    26   15.0   158     23.8   812.0    0.00       4    83.4
 182   19:10   80.7    23   14.9   129     23.6   812.1    0.00       0    83.1
 182   19:20   80.7    23   14.9   133     20.0   812.3    0.00       0    83.0
 182   19:30   81.0    22   16.5   132     23.3   812.3    0.00       0    82.9
 182   19:40   80.0    25   12.6   164     18.8   812.9    0.00       0    82.8
 182   19:50   78.6    29    9.9   243     17.4   813.6    0.00       0    82.7
 182   20:00   75.4    41   14.0   249     21.2   813.8    0.00       0    82.4
 182   20:10   72.2    50   11.4   253     19.4   814.3    0.00       0    81.2
 182   20:20   73.0    46   12.4   246     20.2   814.2    0.00       0    79.8
 182   20:30   73.5    43   14.7   250     19.0   814.1    0.00       0    78.6
 182   20:40   73.3    42   12.5   261     20.6   814.2    0.00       0    77.5
 182   20:50   72.7    44    9.8   314     12.8   814.6    0.00       0    76.7
 182   21:00   72.3    46    8.4   327     12.0   814.7    0.00       0    76.2
 182   21:10   72.1    46    4.1   323      7.2   814.8    0.00       0    76.0
 182   21:20   72.3    45    2.8   295     10.3   815.1    0.00       0    75.8
 182   21:30   71.5    48   12.4   285     20.2   814.7    0.00       0    75.8
 182   21:40   71.3    48   17.1   279     22.3   814.8    0.00       0    75.6
 182   21:50   70.8    50   14.1   257     20.0   815.0    0.00       0    75.5
 182   22:00   70.4    51   12.0   249     16.7   815.2    0.00       0    75.4
 182   22:10   71.2    49    7.0   212     11.0   815.8    0.00       0    75.3
 182   22:20   71.7    48    3.8   171      7.9   816.0    0.00       0    75.3
 182   22:30   71.0    53    6.6    96     12.2   816.1    0.00       0    75.3
 182   22:40   69.7    57    4.4   115      7.3   815.9    0.00       0    75.2
 182   22:50   69.4    58    2.8   100      8.1   816.0    0.00       0    75.1
 182   23:00   69.5    56    1.9    90      3.4   816.0    0.00       0    75.1
 182   23:10   69.6    57    3.8   232      9.7   815.9    0.00       0    75.1
 182   23:20   69.7    54   10.9   217     16.4   815.7    0.00       0    75.0
 182   23:30   68.2    59    7.6   272     14.6   816.2    0.00       0    74.8
 182   23:40   67.4    61    6.2   251     14.0   816.3    0.00       0    74.5
 182   23:50   67.6    59    9.6   257     14.9   816.2    0.00       0    74.3
 183    0:00   67.4    60    5.4   252      7.8   816.2    0.00       0    74.2
 183    0:10   67.9    58    3.9   185      6.7   816.2    0.00       0    74.1
 183    0:20   68.6    55    3.8   129      6.9   816.2    0.00       0    74.1
 183    0:30   69.0    53    3.6   152      7.2   816.0    0.00       0    74.1
 183    0:40   69.3    53    3.2   349      6.6   815.5    0.00       0    74.1
 183    0:50   68.9    54    2.7    30      7.7   815.2    0.00       0    74.0
 183    1:00   69.1    53    0.5    53      2.3   815.6    0.00       0    74.0
 183    1:10   68.4    56    2.3   268      5.0   815.1    0.00       0    73.9
 183    1:20   67.3    59    2.4   265      5.0   815.0    0.00       0    73.8
 183    1:30   66.9    60    3.8   242      5.0   814.8    0.00       0    73.6
 183    1:40   66.9    59    5.2   238      5.9   814.7    0.00       0    73.4
 183    1:50   66.1    59    6.0   206      6.9   814.7    0.00       0    73.1
 183    2:00   65.4    61    6.9   191      8.8   814.5    0.00       0    72.8
 183    2:10   65.5    62    5.5   182      7.6   814.3    0.00       0    72.6
 183    2:20   65.3    64    3.8   111      6.0   814.2    0.00       1    72.4
 183    2:30   64.9    62    3.5    77      5.8   814.1    0.00       0    72.3
 183    2:40   65.0    62    1.5   136      5.8   814.1    0.00       0    72.1
 183    2:50   63.9    65    5.4   165      7.4   814.0    0.00       0    72.0
 183    3:00   63.4    66    4.1   161      7.9   814.1    0.00       0    71.9
 183    3:10   62.9    67    8.4   160     16.4   814.2    0.00       0    71.8
 183    3:20   62.1    70   12.4   143     17.9   814.3    0.00       0    71.6
 183    3:30   62.7    71    7.4   120     13.9   814.4    0.00       0    71.4
 183    3:40   64.0    68    6.1   116     10.2   814.3    0.00       0    71.2
 183    3:50   64.6    65    5.0   148      7.2   814.2    0.00       0    71.1
 183    4:00   63.5    69    6.3   193      9.3   814.3    0.00       1    71.1
 183    4:10   63.7    68    7.9   187     11.0   814.2    0.00       4    71.0
 183    4:20   63.9    67   11.1   182     14.8   814.2    0.00       6    70.8
 183    4:30   63.4    69   10.3   180     14.2   814.2    0.00       7    70.6
 183    4:40   63.5    69    6.6   152     11.0   814.3    0.00       7    70.5
 183    4:50   62.7    71    5.2   122      8.6   814.5    0.00      19    70.3
 183    5:00   62.6    72    4.7   128      7.6   814.4    0.00      25    70.2
 183    5:10   62.9    71    3.1   113      5.4   814.4    0.00      37    70.1
 183    5:20   62.8    71    2.6   127      4.4   814.5    0.00      49    70.1
 183    5:30   62.5    72    3.1   200      4.5   814.6    0.00      69    70.1
 183    5:40   62.7    71    2.4   186      4.2   814.7    0.00      77    70.1
 183    5:50   63.5    68    1.3   127      2.9   814.7    0.00     139    70.3
 183    6:00   65.2    63    0.8    85      2.5   814.7    0.00     200    70.8
 183    6:10   66.5    59    0.7    96      2.2   814.7    0.00     152    71.6
 183    6:20   66.0    61    1.7   122      3.1   814.6    0.00     150    72.0
 183    6:30   66.6    60    1.5   134      3.7   814.8    0.00     194    72.3
 183    6:40   67.1    60    0.9   118      2.3   814.8    0.00     258    72.6
 183    6:50   69.2    55    0.9   121      2.1   814.9    0.00     431    73.0
 183    7:00   71.0    52    0.9    94      2.7   815.0    0.00     336    73.7
 183    7:10   72.5    48    0.8    42      2.7   814.9    0.00     439    74.3
 183    7:20   73.1    46    1.4    62      3.7   815.0    0.00     625    74.8
 183    7:30   75.7    41    1.8   127      4.7   814.9    0.00     649    76.4
 183    7:40   74.6    41    1.3   139      3.9   815.0    0.00     302    78.4
 183    7:50   76.0    39    0.5    60      2.5   815.0    0.00     284    79.0
 183    8:00   75.9    39    1.5   174      3.6   814.9    0.00     291    79.3
 183    8:10   75.8    38    1.0   151      3.2   814.8    0.00     317    79.7
 183    8:20   76.7    36    1.1   179      2.6   814.7    0.00     340    80.1
 183    8:30   77.4    35    0.6   214      2.0   814.7    0.00     389    80.6
 183    8:40   78.1    33    0.5   143      2.0   814.6    0.00     477    81.3
 183    8:50   79.8    30    0.3   105      2.2   814.6    0.00     610    82.3
 183    9:00   80.2    30    0.5    60      3.9   814.4    0.00     529    83.5
 183    9:10   79.3    30    2.9   316      5.0   814.4    0.00     466    84.4
 183    9:20   79.8    29    2.2   327      5.4   814.4    0.00     447    84.9
 183    9:30   80.5    27    1.9   278      5.3   814.4    0.00     415    85.4
 183    9:40   80.5    26    2.6   329      4.6   814.3    0.00     328    85.7
 183    9:50   80.7    26    2.0   316      6.0   814.4    0.00     286    85.7
 183   10:00   80.8    27    2.6   334      5.8   814.4    0.00     294    85.5
 183   10:10   81.4    26    1.8     0      3.9   814.4    0.00     297    85.4
 183   10:20   81.3    26    2.7   300      5.1   814.4    0.00     318    85.3
 183   10:30   82.0    26    1.3   348      5.6   814.4    0.00     333    85.4
 183   10:40   82.2    25    2.6   290      5.9   814.4    0.00     327    85.6
 183   10:50   82.7    24    1.3   331      4.3   814.4    0.00     360    85.7
 183   11:00   83.1    25    1.3   274      3.1   814.4    0.00     426    86.0
 183   11:10   84.4    24    0.3   108      2.6   814.2    0.00     526    86.6
 183   11:20   85.1    24    4.5   202      9.6   814.2    0.00    1034    87.5
 183   11:30   85.9    22    9.5   230     15.0   814.2    0.00    1292    89.7
 183   11:40   85.2    22    8.9   229     15.3   814.2    0.00     842    92.4
 183   11:50   84.8    23    5.4   253     12.3   814.1    0.00    1224    93.8
 183   12:00   86.5    22    4.5   250      9.3   814.1    0.00    1068    95.6
 183   12:10   86.4    21    6.1    26     20.2   814.0    0.00     968    97.1
 183   12:20   87.4    20   10.6    54     17.2   814.0    0.00    1030    97.4
 183   12:30   86.6    21    8.5    31     16.1   813.8    0.00     876    96.7
 183   12:40   85.8    21    6.3    28     12.9   813.7    0.00     569    96.1
 183   12:50   86.8    19    2.9    75      9.6   813.4    0.00     550    95.6
 183   13:00   86.3    20    7.3    31     14.5   813.4    0.00     607    95.5
 183   13:10   86.1    20    4.9    41      7.9   813.4    0.00     517    95.1
 183   13:20   85.7    20    4.0    18      7.1   813.4    0.00     396    94.6
 183   13:30   85.4    20    3.3    17      5.9   813.3    0.00     368    94.1
 183   13:40   86.0    20    1.7   311      5.2   813.1    0.00     423    93.6
 183   13:50   87.7    19    2.1    14      7.7   813.0    0.00     599    93.6
 183   14:00   86.8    21   11.1    19     21.9   813.0    0.00     674    93.8
 183   14:10   87.3    21   12.1    24     19.6   812.9    0.00    1093    94.0
 183   14:20   87.2    21   13.1    26     20.9   812.9    0.00    1053    94.4
 183   14:30   88.5    20   14.7    33     24.1   812.8    0.00    1054    94.8
 183   14:40   88.8    20   15.2    36     24.0   812.7    0.00     936    95.1
 183   14:50   87.0    21   14.5    22     25.1   812.6    0.00     287    94.8
 183   15:00   86.7    22   17.3     4     27.0   812.5    0.00     798    94.0
 183   15:10   86.0    24   25.0   346     40.0   812.7    0.00     830    93.9
 183   15:20   82.8    29   26.5   341     37.8   812.9    0.00     664    93.6
 183   15:30   82.8    28   23.1   347     32.0   813.0    0.00     633    93.0
 183   15:40   81.6    30   22.1   340     30.5   813.0    0.00     289    92.3
 183   15:50   80.5    30   23.3   334     30.7   813.1    0.00     399    91.4
 183   16:00   80.0    31   19.5   340     26.4   813.0    0.00     224    90.5
 183   16:10   80.3    30   18.1   336     24.5   812.8    0.00     292    89.7
 183   16:20   79.3    32   15.0   333     18.9   812.8    0.00     180    89.1
 183   16:30   78.7    33   12.5   334     18.4   812.7    0.00      72    88.4
 183   16:40   78.3    34   12.3   332     17.3   812.8    0.00      68    87.5
 183   16:50   77.9    34   10.4   344     15.0   812.7    0.00      74    86.7
 183   17:00   78.1    33   10.8   342     15.6   812.7    0.00      80    86.1
 183   17:10   78.0    33    9.1   337     12.1   812.7    0.00      93    85.5
 183   17:20   78.2    32    8.0   313     10.5   812.6    0.00      94    85.1
 183   17:30   78.1    32    7.2   310      9.3   812.6    0.00      84    84.8
 183   17:40   78.2    31    5.9   304      8.0   812.6    0.00      78    84.5
 183   17:50   78.4    30    4.4   320      6.1   812.6    0.00      74    84.1
 183   18:00   78.4    30    4.2   321      6.0   812.8    0.00      62    83.8
 183   18:10   78.5    30    3.9   348      5.8   812.7    0.00      53    83.4
 183   18:20   78.2    31    3.7    31      5.9   812.9    0.00      47    83.1
 183   18:30   77.5    33    2.8    41      4.0   813.0    0.00      36    82.7
 183   18:40   77.4    33    1.5    84      2.9   813.0    0.00      28    82.3

Return to Ely, Nevada graphs page.


Western Regional Climate Center,wrcc@dri.edu